sensor_id;sensor_type;location;lat;lon;timestamp;P1;durP1;ratioP1;P2;durP2;ratioP2
71665;SDS011;59503;53.486;10.196;2023-08-20T00:00:27;15.32;;;6.57;;
71665;SDS011;59503;53.486;10.196;2023-08-20T00:02:59;11.63;;;5.57;;
71665;SDS011;59503;53.486;10.196;2023-08-20T00:05:34;18.08;;;6.05;;
71665;SDS011;59503;53.486;10.196;2023-08-20T00:08:00;16.88;;;6.10;;
71665;SDS011;59503;53.486;10.196;2023-08-20T00:10:25;18.93;;;6.63;;
71665;SDS011;59503;53.486;10.196;2023-08-20T00:12:51;18.87;;;6.13;;
71665;SDS011;59503;53.486;10.196;2023-08-20T00:15:16;15.65;;;6.28;;
71665;SDS011;59503;53.486;10.196;2023-08-20T00:17:44;15.90;;;5.97;;
71665;SDS011;59503;53.486;10.196;2023-08-20T00:20:10;13.25;;;5.68;;
71665;SDS011;59503;53.486;10.196;2023-08-20T00:22:38;16.85;;;6.63;;
71665;SDS011;59503;53.486;10.196;2023-08-20T00:25:04;14.95;;;7.10;;
71665;SDS011;59503;53.486;10.196;2023-08-20T00:27:30;19.77;;;7.10;;
71665;SDS011;59503;53.486;10.196;2023-08-20T00:29:56;15.05;;;6.40;;
71665;SDS011;59503;53.486;10.196;2023-08-20T00:32:21;17.37;;;6.03;;
71665;SDS011;59503;53.486;10.196;2023-08-20T00:34:47;19.65;;;7.22;;
71665;SDS011;59503;53.486;10.196;2023-08-20T00:37:12;24.83;;;8.27;;
71665;SDS011;59503;53.486;10.196;2023-08-20T00:39:38;19.63;;;7.10;;
71665;SDS011;59503;53.486;10.196;2023-08-20T00:42:04;26.70;;;8.38;;
71665;SDS011;59503;53.486;10.196;2023-08-20T00:44:30;19.15;;;7.30;;
71665;SDS011;59503;53.486;10.196;2023-08-20T00:46:56;17.83;;;7.27;;
71665;SDS011;59503;53.486;10.196;2023-08-20T00:49:22;20.85;;;6.88;;
71665;SDS011;59503;53.486;10.196;2023-08-20T00:51:48;16.02;;;7.10;;
71665;SDS011;59503;53.486;10.196;2023-08-20T00:54:14;16.17;;;6.55;;
71665;SDS011;59503;53.486;10.196;2023-08-20T00:56:40;16.53;;;6.83;;
71665;SDS011;59503;53.486;10.196;2023-08-20T00:59:05;15.90;;;6.20;;
71665;SDS011;59503;53.486;10.196;2023-08-20T01:01:31;14.77;;;5.70;;
71665;SDS011;59503;53.486;10.196;2023-08-20T01:03:56;17.87;;;6.83;;
71665;SDS011;59503;53.486;10.196;2023-08-20T01:12:01;14.98;;;6.70;;
71665;SDS011;59503;53.486;10.196;2023-08-20T01:14:28;15.10;;;6.20;;
71665;SDS011;59503;53.486;10.196;2023-08-20T01:16:53;15.10;;;5.50;;
71665;SDS011;59503;53.486;10.196;2023-08-20T01:19:19;11.97;;;5.57;;
71665;SDS011;59503;53.486;10.196;2023-08-20T01:29:48;10.98;;;4.90;;
71665;SDS011;59503;53.486;10.196;2023-08-20T01:32:14;11.53;;;4.70;;
71665;SDS011;59503;53.486;10.196;2023-08-20T01:34:41;13.52;;;5.07;;
71665;SDS011;59503;53.486;10.196;2023-08-20T01:37:07;17.83;;;5.00;;
71665;SDS011;59503;53.486;10.196;2023-08-20T01:39:32;12.43;;;5.07;;
71665;SDS011;59503;53.486;10.196;2023-08-20T01:41:58;10.02;;;5.60;;
71665;SDS011;59503;53.486;10.196;2023-08-20T01:44:24;14.63;;;5.37;;
71665;SDS011;59503;53.486;10.196;2023-08-20T01:46:49;15.27;;;6.20;;
71665;SDS011;59503;53.486;10.196;2023-08-20T01:49:15;16.02;;;5.93;;
71665;SDS011;59503;53.486;10.196;2023-08-20T01:51:40;17.63;;;5.87;;
71665;SDS011;59503;53.486;10.196;2023-08-20T01:54:06;15.50;;;6.00;;
71665;SDS011;59503;53.486;10.196;2023-08-20T01:56:32;18.15;;;6.93;;
71665;SDS011;59503;53.486;10.196;2023-08-20T01:58:57;13.00;;;6.33;;
71665;SDS011;59503;53.486;10.196;2023-08-20T02:01:23;19.98;;;6.35;;
71665;SDS011;59503;53.486;10.196;2023-08-20T02:03:48;18.70;;;6.40;;
71665;SDS011;59503;53.486;10.196;2023-08-20T02:06:13;14.70;;;6.27;;
71665;SDS011;59503;53.486;10.196;2023-08-20T02:08:39;17.90;;;5.50;;
71665;SDS011;59503;53.486;10.196;2023-08-20T02:11:04;16.88;;;5.78;;
71665;SDS011;59503;53.486;10.196;2023-08-20T02:13:31;12.23;;;5.80;;
71665;SDS011;59503;53.486;10.196;2023-08-20T02:16:03;9.02;;;5.30;;
71665;SDS011;59503;53.486;10.196;2023-08-20T02:18:30;14.60;;;6.30;;
71665;SDS011;59503;53.486;10.196;2023-08-20T02:20:56;14.13;;;5.97;;
71665;SDS011;59503;53.486;10.196;2023-08-20T02:23:22;11.07;;;5.70;;
71665;SDS011;59503;53.486;10.196;2023-08-20T02:25:47;15.02;;;5.65;;
71665;SDS011;59503;53.486;10.196;2023-08-20T02:28:13;13.40;;;6.00;;
71665;SDS011;59503;53.486;10.196;2023-08-20T02:30:40;16.55;;;6.63;;
71665;SDS011;59503;53.486;10.196;2023-08-20T02:33:06;19.02;;;6.80;;
71665;SDS011;59503;53.486;10.196;2023-08-20T02:35:32;13.50;;;5.30;;
71665;SDS011;59503;53.486;10.196;2023-08-20T02:37:57;15.60;;;6.13;;
71665;SDS011;59503;53.486;10.196;2023-08-20T02:40:23;17.38;;;6.65;;
71665;SDS011;59503;53.486;10.196;2023-08-20T02:42:48;14.67;;;6.20;;
71665;SDS011;59503;53.486;10.196;2023-08-20T02:45:14;15.80;;;6.77;;
71665;SDS011;59503;53.486;10.196;2023-08-20T02:47:39;18.05;;;6.20;;
71665;SDS011;59503;53.486;10.196;2023-08-20T02:50:05;11.20;;;5.93;;
71665;SDS011;59503;53.486;10.196;2023-08-20T02:52:30;13.23;;;6.20;;
71665;SDS011;59503;53.486;10.196;2023-08-20T02:54:56;12.90;;;6.30;;
71665;SDS011;59503;53.486;10.196;2023-08-20T02:57:21;14.17;;;6.50;;
71665;SDS011;59503;53.486;10.196;2023-08-20T02:59:47;13.00;;;6.30;;
71665;SDS011;59503;53.486;10.196;2023-08-20T03:02:12;14.70;;;6.90;;
71665;SDS011;59503;53.486;10.196;2023-08-20T03:04:38;16.17;;;6.87;;
71665;SDS011;59503;53.486;10.196;2023-08-20T03:07:03;13.50;;;6.60;;
71665;SDS011;59503;53.486;10.196;2023-08-20T03:09:29;16.02;;;7.00;;
71665;SDS011;59503;53.486;10.196;2023-08-20T03:11:55;14.10;;;6.40;;
71665;SDS011;59503;53.486;10.196;2023-08-20T03:14:20;13.80;;;6.93;;
71665;SDS011;59503;53.486;10.196;2023-08-20T03:16:46;12.27;;;6.77;;
71665;SDS011;59503;53.486;10.196;2023-08-20T03:19:13;16.37;;;6.83;;
71665;SDS011;59503;53.486;10.196;2023-08-20T03:21:40;17.45;;;7.50;;
71665;SDS011;59503;53.486;10.196;2023-08-20T03:24:05;18.10;;;6.97;;
71665;SDS011;59503;53.486;10.196;2023-08-20T03:26:32;21.02;;;8.93;;
71665;SDS011;59503;53.486;10.196;2023-08-20T03:28:57;25.00;;;9.00;;
71665;SDS011;59503;53.486;10.196;2023-08-20T03:31:24;22.20;;;9.30;;
71665;SDS011;59503;53.486;10.196;2023-08-20T03:33:49;23.13;;;9.80;;
71665;SDS011;59503;53.486;10.196;2023-08-20T03:36:15;23.47;;;9.50;;
71665;SDS011;59503;53.486;10.196;2023-08-20T03:38:40;25.13;;;10.20;;
71665;SDS011;59503;53.486;10.196;2023-08-20T03:41:06;25.00;;;10.18;;
71665;SDS011;59503;53.486;10.196;2023-08-20T03:43:31;29.90;;;11.27;;
71665;SDS011;59503;53.486;10.196;2023-08-20T03:45:57;21.17;;;9.20;;
71665;SDS011;59503;53.486;10.196;2023-08-20T03:48:22;23.63;;;9.98;;
71665;SDS011;59503;53.486;10.196;2023-08-20T03:50:48;22.97;;;10.23;;
71665;SDS011;59503;53.486;10.196;2023-08-20T03:53:13;19.90;;;9.50;;
71665;SDS011;59503;53.486;10.196;2023-08-20T03:55:39;18.52;;;9.38;;
71665;SDS011;59503;53.486;10.196;2023-08-20T03:58:04;19.80;;;9.33;;
71665;SDS011;59503;53.486;10.196;2023-08-20T04:00:30;21.53;;;9.93;;
71665;SDS011;59503;53.486;10.196;2023-08-20T04:02:55;24.10;;;9.03;;
71665;SDS011;59503;53.486;10.196;2023-08-20T04:05:21;9.25;;;6.28;;
71665;SDS011;59503;53.486;10.196;2023-08-20T04:07:46;12.03;;;7.23;;
71665;SDS011;59503;53.486;10.196;2023-08-20T04:10:12;9.47;;;6.40;;
71665;SDS011;59503;53.486;10.196;2023-08-20T04:12:37;15.90;;;8.20;;
71665;SDS011;59503;53.486;10.196;2023-08-20T04:15:03;10.67;;;6.20;;
71665;SDS011;59503;53.486;10.196;2023-08-20T04:17:28;11.73;;;6.57;;
71665;SDS011;59503;53.486;10.196;2023-08-20T04:19:54;12.20;;;6.37;;
71665;SDS011;59503;53.486;10.196;2023-08-20T04:22:19;10.50;;;5.90;;
71665;SDS011;59503;53.486;10.196;2023-08-20T04:24:45;15.67;;;6.83;;
71665;SDS011;59503;53.486;10.196;2023-08-20T04:27:10;14.07;;;6.85;;
71665;SDS011;59503;53.486;10.196;2023-08-20T04:29:35;13.77;;;6.40;;
71665;SDS011;59503;53.486;10.196;2023-08-20T04:32:01;10.63;;;6.07;;
71665;SDS011;59503;53.486;10.196;2023-08-20T04:34:27;8.93;;;5.15;;
71665;SDS011;59503;53.486;10.196;2023-08-20T04:36:52;14.47;;;6.27;;
71665;SDS011;59503;53.486;10.196;2023-08-20T04:39:18;15.93;;;7.07;;
71665;SDS011;59503;53.486;10.196;2023-08-20T04:41:44;11.38;;;6.75;;
71665;SDS011;59503;53.486;10.196;2023-08-20T04:44:09;16.30;;;6.73;;
71665;SDS011;59503;53.486;10.196;2023-08-20T04:46:35;29.27;;;6.63;;
71665;SDS011;59503;53.486;10.196;2023-08-20T04:49:00;9.60;;;5.17;;
71665;SDS011;59503;53.486;10.196;2023-08-20T04:51:26;8.97;;;5.67;;
71665;SDS011;59503;53.486;10.196;2023-08-20T04:53:51;10.90;;;5.93;;
71665;SDS011;59503;53.486;10.196;2023-08-20T04:56:16;10.70;;;5.97;;
71665;SDS011;59503;53.486;10.196;2023-08-20T04:58:42;10.27;;;6.23;;
71665;SDS011;59503;53.486;10.196;2023-08-20T05:01:07;10.60;;;6.00;;
71665;SDS011;59503;53.486;10.196;2023-08-20T05:03:34;13.70;;;6.23;;
71665;SDS011;59503;53.486;10.196;2023-08-20T05:05:59;10.77;;;5.38;;
71665;SDS011;59503;53.486;10.196;2023-08-20T05:08:25;35.07;;;6.73;;
71665;SDS011;59503;53.486;10.196;2023-08-20T05:10:50;15.47;;;5.50;;
71665;SDS011;59503;53.486;10.196;2023-08-20T05:13:16;7.97;;;5.20;;
71665;SDS011;59503;53.486;10.196;2023-08-20T05:15:42;12.25;;;5.50;;
71665;SDS011;59503;53.486;10.196;2023-08-20T05:18:08;42.70;;;5.67;;
71665;SDS011;59503;53.486;10.196;2023-08-20T05:20:33;18.27;;;5.10;;
71665;SDS011;59503;53.486;10.196;2023-08-20T05:22:59;13.55;;;4.72;;
71665;SDS011;59503;53.486;10.196;2023-08-20T05:25:24;12.53;;;4.23;;
71665;SDS011;59503;53.486;10.196;2023-08-20T05:27:50;6.13;;;4.30;;
71665;SDS011;59503;53.486;10.196;2023-08-20T05:30:15;5.60;;;4.00;;
71665;SDS011;59503;53.486;10.196;2023-08-20T05:32:41;8.60;;;4.40;;
71665;SDS011;59503;53.486;10.196;2023-08-20T05:35:06;20.23;;;4.90;;
71665;SDS011;59503;53.486;10.196;2023-08-20T05:37:32;8.80;;;4.55;;
71665;SDS011;59503;53.486;10.196;2023-08-20T05:39:57;17.10;;;5.17;;
71665;SDS011;59503;53.486;10.196;2023-08-20T05:42:23;22.53;;;5.43;;
71665;SDS011;59503;53.486;10.196;2023-08-20T05:44:48;57.53;;;5.97;;
71665;SDS011;59503;53.486;10.196;2023-08-20T05:47:14;31.63;;;6.73;;
71665;SDS011;59503;53.486;10.196;2023-08-20T05:49:39;24.30;;;5.83;;
71665;SDS011;59503;53.486;10.196;2023-08-20T05:52:05;14.38;;;5.57;;
71665;SDS011;59503;53.486;10.196;2023-08-20T05:54:30;10.10;;;5.30;;
71665;SDS011;59503;53.486;10.196;2023-08-20T05:56:57;19.97;;;5.97;;
71665;SDS011;59503;53.486;10.196;2023-08-20T05:59:23;12.90;;;6.00;;
71665;SDS011;59503;53.486;10.196;2023-08-20T06:01:49;16.70;;;7.13;;
71665;SDS011;59503;53.486;10.196;2023-08-20T06:04:14;8.40;;;5.17;;
71665;SDS011;59503;53.486;10.196;2023-08-20T06:06:40;8.57;;;5.20;;
71665;SDS011;59503;53.486;10.196;2023-08-20T06:09:05;6.93;;;4.80;;
71665;SDS011;59503;53.486;10.196;2023-08-20T06:11:31;11.70;;;5.90;;
71665;SDS011;59503;53.486;10.196;2023-08-20T06:13:56;11.70;;;5.80;;
71665;SDS011;59503;53.486;10.196;2023-08-20T06:16:22;9.00;;;6.40;;
71665;SDS011;59503;53.486;10.196;2023-08-20T06:18:47;13.20;;;5.63;;
71665;SDS011;59503;53.486;10.196;2023-08-20T06:21:12;24.60;;;6.57;;
71665;SDS011;59503;53.486;10.196;2023-08-20T06:23:38;12.32;;;6.18;;
71665;SDS011;59503;53.486;10.196;2023-08-20T06:26:03;11.20;;;5.87;;
71665;SDS011;59503;53.486;10.196;2023-08-20T06:28:29;18.87;;;6.50;;
71665;SDS011;59503;53.486;10.196;2023-08-20T06:30:57;54.45;;;7.55;;
71665;SDS011;59503;53.486;10.196;2023-08-20T06:33:22;9.03;;;5.83;;
71665;SDS011;59503;53.486;10.196;2023-08-20T06:35:48;16.98;;;6.88;;
71665;SDS011;59503;53.486;10.196;2023-08-20T06:38:13;13.07;;;5.83;;
71665;SDS011;59503;53.486;10.196;2023-08-20T06:40:39;10.10;;;5.83;;
71665;SDS011;59503;53.486;10.196;2023-08-20T06:43:05;11.02;;;6.95;;
71665;SDS011;59503;53.486;10.196;2023-08-20T06:45:30;11.53;;;6.50;;
71665;SDS011;59503;53.486;10.196;2023-08-20T06:47:56;8.27;;;5.00;;
71665;SDS011;59503;53.486;10.196;2023-08-20T06:50:22;12.25;;;6.30;;
71665;SDS011;59503;53.486;10.196;2023-08-20T06:52:48;12.82;;;6.65;;
71665;SDS011;59503;53.486;10.196;2023-08-20T06:55:13;9.20;;;5.80;;
71665;SDS011;59503;53.486;10.196;2023-08-20T06:57:38;17.57;;;7.67;;
71665;SDS011;59503;53.486;10.196;2023-08-20T07:00:04;11.67;;;6.93;;
71665;SDS011;59503;53.486;10.196;2023-08-20T07:02:30;14.00;;;8.10;;
71665;SDS011;59503;53.486;10.196;2023-08-20T07:04:56;14.33;;;8.00;;
71665;SDS011;59503;53.486;10.196;2023-08-20T07:07:21;16.88;;;8.10;;
71665;SDS011;59503;53.486;10.196;2023-08-20T07:09:47;15.37;;;7.20;;
71665;SDS011;59503;53.486;10.196;2023-08-20T07:12:12;15.27;;;8.23;;
71665;SDS011;59503;53.486;10.196;2023-08-20T07:14:38;16.17;;;9.13;;
71665;SDS011;59503;53.486;10.196;2023-08-20T07:17:03;13.03;;;7.70;;
71665;SDS011;59503;53.486;10.196;2023-08-20T07:19:30;16.67;;;9.80;;
71665;SDS011;59503;53.486;10.196;2023-08-20T07:21:55;16.37;;;9.57;;
71665;SDS011;59503;53.486;10.196;2023-08-20T07:24:21;19.75;;;10.93;;
71665;SDS011;59503;53.486;10.196;2023-08-20T07:26:53;18.00;;;10.20;;
71665;SDS011;59503;53.486;10.196;2023-08-20T07:29:24;19.40;;;10.38;;
71665;SDS011;59503;53.486;10.196;2023-08-20T07:31:50;21.83;;;11.02;;
71665;SDS011;59503;53.486;10.196;2023-08-20T07:34:15;16.37;;;9.47;;
71665;SDS011;59503;53.486;10.196;2023-08-20T07:36:41;18.50;;;9.97;;
71665;SDS011;59503;53.486;10.196;2023-08-20T07:39:06;14.48;;;9.00;;
71665;SDS011;59503;53.486;10.196;2023-08-20T07:41:33;18.85;;;9.05;;
71665;SDS011;59503;53.486;10.196;2023-08-20T07:43:59;18.90;;;9.90;;
71665;SDS011;59503;53.486;10.196;2023-08-20T07:46:24;18.70;;;9.37;;
71665;SDS011;59503;53.486;10.196;2023-08-20T07:48:50;17.50;;;9.60;;
71665;SDS011;59503;53.486;10.196;2023-08-20T07:51:15;18.53;;;9.97;;
71665;SDS011;59503;53.486;10.196;2023-08-20T07:53:41;20.33;;;9.77;;
71665;SDS011;59503;53.486;10.196;2023-08-20T07:56:06;16.70;;;8.97;;
71665;SDS011;59503;53.486;10.196;2023-08-20T07:58:31;12.07;;;7.00;;
71665;SDS011;59503;53.486;10.196;2023-08-20T08:00:57;11.67;;;7.40;;
71665;SDS011;59503;53.486;10.196;2023-08-20T08:03:24;15.68;;;7.93;;
71665;SDS011;59503;53.486;10.196;2023-08-20T08:05:50;13.00;;;6.70;;
71665;SDS011;59503;53.486;10.196;2023-08-20T08:08:16;11.90;;;6.47;;
71665;SDS011;59503;53.486;10.196;2023-08-20T08:10:43;14.95;;;6.93;;
71665;SDS011;59503;53.486;10.196;2023-08-20T08:13:10;13.07;;;6.43;;
71665;SDS011;59503;53.486;10.196;2023-08-20T08:15:36;11.98;;;6.28;;
71665;SDS011;59503;53.486;10.196;2023-08-20T08:18:02;12.63;;;6.10;;
71665;SDS011;59503;53.486;10.196;2023-08-20T08:20:28;8.63;;;5.70;;
71665;SDS011;59503;53.486;10.196;2023-08-20T08:22:53;8.57;;;5.75;;
71665;SDS011;59503;53.486;10.196;2023-08-20T08:25:19;7.87;;;5.43;;
71665;SDS011;59503;53.486;10.196;2023-08-20T08:27:44;8.60;;;5.13;;
71665;SDS011;59503;53.486;10.196;2023-08-20T08:30:10;7.88;;;5.53;;
71665;SDS011;59503;53.486;10.196;2023-08-20T08:32:36;7.97;;;4.93;;
71665;SDS011;59503;53.486;10.196;2023-08-20T08:35:01;13.17;;;4.60;;
71665;SDS011;59503;53.486;10.196;2023-08-20T08:37:27;7.93;;;5.13;;
71665;SDS011;59503;53.486;10.196;2023-08-20T08:39:52;10.15;;;5.15;;
71665;SDS011;59503;53.486;10.196;2023-08-20T08:42:17;8.60;;;5.13;;
71665;SDS011;59503;53.486;10.196;2023-08-20T08:44:47;10.35;;;5.20;;
71665;SDS011;59503;53.486;10.196;2023-08-20T08:47:14;8.23;;;4.43;;
71665;SDS011;59503;53.486;10.196;2023-08-20T08:49:40;10.60;;;4.18;;
71665;SDS011;59503;53.486;10.196;2023-08-20T08:52:05;7.83;;;5.13;;
71665;SDS011;59503;53.486;10.196;2023-08-20T08:54:32;7.53;;;4.73;;
71665;SDS011;59503;53.486;10.196;2023-08-20T08:56:58;10.48;;;4.90;;
71665;SDS011;59503;53.486;10.196;2023-08-20T08:59:24;10.47;;;4.97;;
71665;SDS011;59503;53.486;10.196;2023-08-20T09:01:49;8.40;;;4.63;;
71665;SDS011;59503;53.486;10.196;2023-08-20T09:04:14;5.67;;;3.70;;
71665;SDS011;59503;53.486;10.196;2023-08-20T09:10:20;5.97;;;3.95;;
71665;SDS011;59503;53.486;10.196;2023-08-20T09:12:46;6.37;;;3.70;;
71665;SDS011;59503;53.486;10.196;2023-08-20T09:15:12;6.63;;;4.18;;
71665;SDS011;59503;53.486;10.196;2023-08-20T09:17:39;5.67;;;3.20;;
71665;SDS011;59503;53.486;10.196;2023-08-20T09:20:06;7.88;;;3.83;;
71665;SDS011;59503;53.486;10.196;2023-08-20T09:22:34;6.05;;;3.53;;
71665;SDS011;59503;53.486;10.196;2023-08-20T09:25:00;8.20;;;3.47;;
71665;SDS011;59503;53.486;10.196;2023-08-20T09:27:27;8.15;;;3.95;;
71665;SDS011;59503;53.486;10.196;2023-08-20T09:29:54;7.90;;;3.70;;
71665;SDS011;59503;53.486;10.196;2023-08-20T09:32:21;6.07;;;3.53;;
71665;SDS011;59503;53.486;10.196;2023-08-20T09:34:52;6.32;;;3.28;;
71665;SDS011;59503;53.486;10.196;2023-08-20T09:37:19;4.95;;;3.25;;
71665;SDS011;59503;53.486;10.196;2023-08-20T09:39:46;5.68;;;3.28;;
71665;SDS011;59503;53.486;10.196;2023-08-20T09:42:12;9.73;;;3.13;;
71665;SDS011;59503;53.486;10.196;2023-08-20T09:44:39;6.32;;;2.90;;
71665;SDS011;59503;53.486;10.196;2023-08-20T09:47:07;7.93;;;3.35;;
71665;SDS011;59503;53.486;10.196;2023-08-20T09:49:40;6.20;;;3.15;;
71665;SDS011;59503;53.486;10.196;2023-08-20T09:52:08;6.25;;;2.63;;
71665;SDS011;59503;53.486;10.196;2023-08-20T10:00:06;7.70;;;3.00;;
71665;SDS011;59503;53.486;10.196;2023-08-20T10:02:36;7.85;;;2.70;;
71665;SDS011;59503;53.486;10.196;2023-08-20T10:05:02;7.10;;;2.85;;
71665;SDS011;59503;53.486;10.196;2023-08-20T10:07:30;5.70;;;2.47;;
71665;SDS011;59503;53.486;10.196;2023-08-20T10:10:01;5.03;;;2.25;;
71665;SDS011;59503;53.486;10.196;2023-08-20T10:12:28;5.38;;;2.45;;
71665;SDS011;59503;53.486;10.196;2023-08-20T10:14:58;5.97;;;2.30;;
71665;SDS011;59503;53.486;10.196;2023-08-20T10:17:24;8.50;;;2.75;;
71665;SDS011;59503;53.486;10.196;2023-08-20T10:19:51;8.30;;;2.60;;
71665;SDS011;59503;53.486;10.196;2023-08-20T10:22:18;6.15;;;2.85;;
71665;SDS011;59503;53.486;10.196;2023-08-20T10:24:48;6.27;;;2.60;;
71665;SDS011;59503;53.486;10.196;2023-08-20T10:27:27;6.13;;;2.38;;
71665;SDS011;59503;53.486;10.196;2023-08-20T10:29:56;6.97;;;2.50;;
71665;SDS011;59503;53.486;10.196;2023-08-20T10:35:12;7.30;;;2.77;;
71665;SDS011;59503;53.486;10.196;2023-08-20T10:37:43;8.13;;;2.88;;
71665;SDS011;59503;53.486;10.196;2023-08-20T10:40:57;4.10;;;2.58;;
71665;SDS011;59503;53.486;10.196;2023-08-20T10:43:27;7.57;;;2.70;;
71665;SDS011;59503;53.486;10.196;2023-08-20T10:51:05;8.30;;;2.75;;
71665;SDS011;59503;53.486;10.196;2023-08-20T10:53:31;6.43;;;2.80;;
71665;SDS011;59503;53.486;10.196;2023-08-20T10:56:06;4.73;;;2.50;;
71665;SDS011;59503;53.486;10.196;2023-08-20T10:58:32;9.93;;;3.10;;
71665;SDS011;59503;53.486;10.196;2023-08-20T11:03:41;8.50;;;2.85;;
71665;SDS011;59503;53.486;10.196;2023-08-20T11:06:07;6.65;;;2.97;;
71665;SDS011;59503;53.486;10.196;2023-08-20T11:08:33;8.13;;;3.13;;
71665;SDS011;59503;53.486;10.196;2023-08-20T11:10:59;7.15;;;3.20;;
71665;SDS011;59503;53.486;10.196;2023-08-20T11:13:25;8.02;;;2.92;;
71665;SDS011;59503;53.486;10.196;2023-08-20T11:15:50;7.57;;;2.93;;
71665;SDS011;59503;53.486;10.196;2023-08-20T11:18:16;5.80;;;2.77;;
71665;SDS011;59503;53.486;10.196;2023-08-20T11:20:42;7.97;;;3.38;;
71665;SDS011;59503;53.486;10.196;2023-08-20T11:23:07;5.67;;;2.70;;
71665;SDS011;59503;53.486;10.196;2023-08-20T11:25:34;7.35;;;2.30;;
71665;SDS011;59503;53.486;10.196;2023-08-20T11:27:59;8.80;;;3.10;;
71665;SDS011;59503;53.486;10.196;2023-08-20T11:30:28;7.77;;;2.87;;
71665;SDS011;59503;53.486;10.196;2023-08-20T11:32:54;8.90;;;2.90;;
71665;SDS011;59503;53.486;10.196;2023-08-20T11:35:20;6.80;;;2.70;;
71665;SDS011;59503;53.486;10.196;2023-08-20T11:37:45;8.90;;;2.70;;
71665;SDS011;59503;53.486;10.196;2023-08-20T11:40:11;9.60;;;3.30;;
71665;SDS011;59503;53.486;10.196;2023-08-20T11:42:37;6.17;;;2.70;;
71665;SDS011;59503;53.486;10.196;2023-08-20T11:45:02;10.03;;;2.83;;
71665;SDS011;59503;53.486;10.196;2023-08-20T11:47:28;5.53;;;2.65;;
71665;SDS011;59503;53.486;10.196;2023-08-20T11:50:03;7.37;;;3.13;;
71665;SDS011;59503;53.486;10.196;2023-08-20T11:52:30;7.10;;;2.60;;
71665;SDS011;59503;53.486;10.196;2023-08-20T11:55:00;7.78;;;2.97;;
71665;SDS011;59503;53.486;10.196;2023-08-20T11:57:26;5.63;;;2.63;;
71665;SDS011;59503;53.486;10.196;2023-08-20T11:59:53;4.97;;;2.87;;
71665;SDS011;59503;53.486;10.196;2023-08-20T12:02:25;5.38;;;2.70;;
71665;SDS011;59503;53.486;10.196;2023-08-20T12:04:55;6.13;;;2.50;;
71665;SDS011;59503;53.486;10.196;2023-08-20T12:07:24;8.90;;;2.90;;
71665;SDS011;59503;53.486;10.196;2023-08-20T12:09:52;10.68;;;3.75;;
71665;SDS011;59503;53.486;10.196;2023-08-20T12:12:19;6.57;;;2.80;;
71665;SDS011;59503;53.486;10.196;2023-08-20T12:14:45;7.95;;;2.80;;
71665;SDS011;59503;53.486;10.196;2023-08-20T12:17:11;4.47;;;2.67;;
71665;SDS011;59503;53.486;10.196;2023-08-20T12:19:36;6.20;;;2.40;;
71665;SDS011;59503;53.486;10.196;2023-08-20T12:22:01;6.78;;;3.25;;
71665;SDS011;59503;53.486;10.196;2023-08-20T12:24:27;6.47;;;2.73;;
71665;SDS011;59503;53.486;10.196;2023-08-20T12:26:52;7.73;;;2.90;;
71665;SDS011;59503;53.486;10.196;2023-08-20T12:29:18;6.37;;;2.93;;
71665;SDS011;59503;53.486;10.196;2023-08-20T12:31:43;6.05;;;3.53;;
71665;SDS011;59503;53.486;10.196;2023-08-20T12:34:09;5.97;;;2.77;;
71665;SDS011;59503;53.486;10.196;2023-08-20T12:36:34;3.53;;;2.30;;
71665;SDS011;59503;53.486;10.196;2023-08-20T12:39:00;6.77;;;2.83;;
71665;SDS011;59503;53.486;10.196;2023-08-20T12:41:25;4.87;;;2.70;;
71665;SDS011;59503;53.486;10.196;2023-08-20T12:43:51;4.70;;;2.60;;
71665;SDS011;59503;53.486;10.196;2023-08-20T12:46:16;7.00;;;3.20;;
71665;SDS011;59503;53.486;10.196;2023-08-20T12:48:42;10.23;;;3.30;;
71665;SDS011;59503;53.486;10.196;2023-08-20T12:51:07;6.70;;;3.13;;
71665;SDS011;59503;53.486;10.196;2023-08-20T12:53:37;4.85;;;3.10;;
71665;SDS011;59503;53.486;10.196;2023-08-20T12:56:02;7.43;;;3.40;;
71665;SDS011;59503;53.486;10.196;2023-08-20T12:58:28;8.43;;;3.27;;
71665;SDS011;59503;53.486;10.196;2023-08-20T13:00:53;5.97;;;3.00;;
71665;SDS011;59503;53.486;10.196;2023-08-20T13:03:19;6.43;;;3.17;;
71665;SDS011;59503;53.486;10.196;2023-08-20T13:05:44;6.10;;;3.10;;
71665;SDS011;59503;53.486;10.196;2023-08-20T13:08:10;8.82;;;2.70;;
71665;SDS011;59503;53.486;10.196;2023-08-20T13:10:38;5.30;;;3.17;;
71665;SDS011;59503;53.486;10.196;2023-08-20T13:13:05;8.98;;;3.10;;
71665;SDS011;59503;53.486;10.196;2023-08-20T13:15:35;7.93;;;2.83;;
71665;SDS011;59503;53.486;10.196;2023-08-20T13:18:00;6.77;;;2.93;;
71665;SDS011;59503;53.486;10.196;2023-08-20T13:20:27;5.10;;;3.40;;
71665;SDS011;59503;53.486;10.196;2023-08-20T13:22:53;10.95;;;3.10;;
71665;SDS011;59503;53.486;10.196;2023-08-20T13:25:18;4.10;;;2.50;;
71665;SDS011;59503;53.486;10.196;2023-08-20T13:27:46;4.32;;;2.97;;
71665;SDS011;59503;53.486;10.196;2023-08-20T13:30:12;7.80;;;3.30;;
71665;SDS011;59503;53.486;10.196;2023-08-20T13:32:38;4.82;;;2.90;;
71665;SDS011;59503;53.486;10.196;2023-08-20T13:35:03;5.17;;;3.13;;
71665;SDS011;59503;53.486;10.196;2023-08-20T13:37:30;7.53;;;3.60;;
71665;SDS011;59503;53.486;10.196;2023-08-20T13:39:58;5.28;;;2.90;;
71665;SDS011;59503;53.486;10.196;2023-08-20T13:42:24;5.85;;;3.08;;
71665;SDS011;59503;53.486;10.196;2023-08-20T13:44:50;4.77;;;3.57;;
71665;SDS011;59503;53.486;10.196;2023-08-20T13:47:16;4.78;;;3.15;;
71665;SDS011;59503;53.486;10.196;2023-08-20T13:49:41;5.50;;;3.20;;
71665;SDS011;59503;53.486;10.196;2023-08-20T13:52:07;5.87;;;3.03;;
71665;SDS011;59503;53.486;10.196;2023-08-20T13:54:34;5.95;;;3.17;;
71665;SDS011;59503;53.486;10.196;2023-08-20T13:57:00;6.47;;;3.38;;
71665;SDS011;59503;53.486;10.196;2023-08-20T13:59:25;4.90;;;3.40;;
71665;SDS011;59503;53.486;10.196;2023-08-20T14:01:51;6.37;;;4.13;;
71665;SDS011;59503;53.486;10.196;2023-08-20T14:04:16;4.63;;;3.05;;
71665;SDS011;59503;53.486;10.196;2023-08-20T14:06:42;5.87;;;3.07;;
71665;SDS011;59503;53.486;10.196;2023-08-20T14:09:07;5.63;;;3.47;;
71665;SDS011;59503;53.486;10.196;2023-08-20T14:11:33;5.78;;;3.28;;
71665;SDS011;59503;53.486;10.196;2023-08-20T14:13:58;7.37;;;3.13;;
71665;SDS011;59503;53.486;10.196;2023-08-20T14:16:24;5.67;;;3.20;;
71665;SDS011;59503;53.486;10.196;2023-08-20T14:18:49;6.20;;;3.08;;
71665;SDS011;59503;53.486;10.196;2023-08-20T14:21:14;4.83;;;3.00;;
71665;SDS011;59503;53.486;10.196;2023-08-20T14:23:40;6.63;;;3.30;;
71665;SDS011;59503;53.486;10.196;2023-08-20T14:26:05;5.27;;;2.90;;
71665;SDS011;59503;53.486;10.196;2023-08-20T14:28:32;6.70;;;3.20;;
71665;SDS011;59503;53.486;10.196;2023-08-20T14:31:01;5.27;;;3.17;;
71665;SDS011;59503;53.486;10.196;2023-08-20T14:33:28;5.28;;;2.75;;
71665;SDS011;59503;53.486;10.196;2023-08-20T14:35:54;9.38;;;3.40;;
71665;SDS011;59503;53.486;10.196;2023-08-20T14:38:20;6.83;;;3.40;;
71665;SDS011;59503;53.486;10.196;2023-08-20T14:40:45;7.43;;;3.10;;
71665;SDS011;59503;53.486;10.196;2023-08-20T14:43:10;6.47;;;3.30;;
71665;SDS011;59503;53.486;10.196;2023-08-20T14:45:36;6.47;;;3.30;;
71665;SDS011;59503;53.486;10.196;2023-08-20T14:48:01;6.03;;;3.00;;
71665;SDS011;59503;53.486;10.196;2023-08-20T14:50:27;4.32;;;3.08;;
71665;SDS011;59503;53.486;10.196;2023-08-20T14:52:53;5.40;;;3.00;;